Time;durP1;ratioP1;P1;durP2;ratioP2;P2;SDS_P1;SDS_P2;PMS_P1;PMS_P2;Temp;Humidity;BMP_temperature;BMP_pressure;BME280_temperature;BME280_humidity;BME280_pressure;Samples;Min_cycle;Max_cycle;Signal;HPM_P1;HPM_P2
2022/01/11 00:00:48;;;;;;;16.03;2.83;;;28.40;99.90;;;;;;4993505;28;20175;-70
2022/01/11 00:03:18;;;;;;;13.13;2.73;;;28.30;99.90;;;;;;4993304;28;20175;-75
2022/01/11 00:08:38;;;;;;;15.17;3.03;;;28.20;99.90;;;;;;4971982;28;20345;-72
2022/01/11 00:11:05;;;;;;;9.87;2.40;;;28.20;99.90;;;;;;4993449;28;20286;-72
2022/01/11 00:13:35;;;;;;;16.00;2.70;;;28.40;99.90;;;;;;4993699;28;20214;-72
2022/01/11 00:16:04;;;;;;;10.70;2.70;;;28.20;99.90;;;;;;4976061;28;20293;-71
2022/01/11 00:18:33;;;;;;;7.57;2.40;;;28.20;99.90;;;;;;4993297;28;20183;-72
2022/01/11 00:21:00;;;;;;;15.17;3.07;;;28.00;99.90;;;;;;4993811;28;20198;-73
2022/01/11 00:25:57;;;;;;;11.73;2.73;;;28.20;99.90;;;;;;4993594;28;20179;-72
2022/01/11 00:28:27;;;;;;;14.30;3.63;;;28.20;99.90;;;;;;4992579;28;20186;-70
2022/01/11 00:30:55;;;;;;;13.23;3.13;;;28.30;99.90;;;;;;4992688;28;20218;-70
2022/01/11 00:34:00;;;;;;;10.00;3.00;;;28.40;99.90;;;;;;4993264;28;20186;-71
2022/01/11 00:36:19;;;;;;;9.33;2.43;;;28.60;99.90;;;;;;4990804;28;20283;-72
2022/01/11 00:38:47;;;;;;;8.83;2.80;;;28.80;99.90;;;;;;4975088;28;20273;-71
2022/01/11 00:41:15;;;;;;;13.50;3.17;;;28.70;99.90;;;;;;4975001;28;20194;-71
2022/01/11 00:43:44;;;;;;;12.60;2.40;;;28.70;99.90;;;;;;4992944;28;20333;-73
2022/01/11 00:46:13;;;;;;;10.90;2.47;;;28.60;99.90;;;;;;4992674;28;20219;-71
2022/01/11 00:48:41;;;;;;;14.70;3.20;;;28.60;99.90;;;;;;4992297;28;20182;-71
2022/01/11 00:51:10;;;;;;;9.83;3.13;;;28.60;99.90;;;;;;4992764;28;20543;-72
2022/01/11 00:53:39;;;;;;;12.33;3.07;;;28.80;99.90;;;;;;4993107;28;20237;-72
2022/01/11 00:56:07;;;;;;;9.47;3.07;;;28.90;99.90;;;;;;4992230;28;20209;-71
2022/01/11 00:58:35;;;;;;;15.20;2.77;;;28.90;99.90;;;;;;4992516;28;20187;-72
2022/01/11 01:01:03;;;;;;;15.27;2.83;;;28.70;99.90;;;;;;4992537;28;20179;-73
2022/01/11 01:03:31;;;;;;;13.70;2.73;;;28.80;99.90;;;;;;4992662;28;20210;-72
2022/01/11 01:05:59;;;;;;;12.27;2.73;;;28.80;99.90;;;;;;4992583;28;20182;-72
2022/01/11 01:08:26;;;;;;;18.80;2.77;;;28.60;99.90;;;;;;4991892;28;20228;-71
2022/01/11 01:10:55;;;;;;;24.47;4.20;;;28.60;99.90;;;;;;4992516;28;20204;-72
2022/01/11 01:13:25;;;;;;;189.50;23.77;;;28.80;99.90;;;;;;4992392;28;20201;-72
2022/01/11 01:15:55;;;;;;;64.23;10.73;;;28.80;99.90;;;;;;4992413;28;20214;-72
2022/01/11 01:18:26;;;;;;;14.17;2.90;;;28.70;99.90;;;;;;4991929;28;20273;-72
2022/01/11 01:20:55;;;;;;;17.00;2.80;;;28.50;99.90;;;;;;4992466;28;20723;-72
2022/01/11 01:23:24;;;;;;;15.27;4.13;;;28.40;99.90;;;;;;4991746;28;20187;-72
2022/01/11 01:25:53;;;;;;;16.10;3.07;;;28.40;99.90;;;;;;4992130;28;20262;-72
2022/01/11 01:28:21;;;;;;;13.83;3.30;;;28.40;99.90;;;;;;4991414;28;20241;-71
2022/01/11 01:30:52;;;;;;;10.53;3.10;;;28.50;99.90;;;;;;4992252;28;20213;-72
2022/01/11 01:33:20;;;;;;;11.00;2.83;;;28.40;99.90;;;;;;4974704;28;20185;-72
2022/01/11 01:35:55;;;;;;;8.80;2.97;;;28.20;99.90;;;;;;4992047;28;20273;-72
2022/01/11 01:38:25;;;;;;;17.03;2.57;;;28.20;99.90;;;;;;4991773;28;20190;-72
2022/01/11 01:41:00;;;;;;;10.07;2.73;;;28.30;99.90;;;;;;4992006;28;20178;-72
2022/01/11 01:43:29;;;;;;;16.27;3.20;;;28.40;99.90;;;;;;4991768;28;20198;-71
2022/01/11 01:46:00;;;;;;;13.17;2.97;;;28.30;99.90;;;;;;4974788;28;20183;-72
2022/01/11 01:48:29;;;;;;;17.87;3.00;;;28.40;99.90;;;;;;4991621;28;20647;-72
2022/01/11 01:50:57;;;;;;;10.90;3.03;;;28.60;99.90;;;;;;4991708;28;20233;-71
2022/01/11 01:53:26;;;;;;;11.17;2.90;;;28.80;99.90;;;;;;4991059;28;20186;-72
2022/01/11 01:55:55;;;;;;;14.23;3.00;;;29.00;99.90;;;;;;4991864;28;20210;-71
2022/01/11 01:58:23;;;;;;;12.20;2.37;;;29.10;99.90;;;;;;4991471;28;20213;-72
2022/01/11 02:00:54;;;;;;;13.00;3.23;;;29.30;99.90;;;;;;4991774;28;20307;-71
2022/01/11 02:03:27;;;;;;;10.70;2.40;;;29.70;99.90;;;;;;4991785;28;20213;-71
2022/01/11 02:05:57;;;;;;;8.93;2.50;;;29.70;99.90;;;;;;4991777;28;20323;-71
2022/01/11 02:08:26;;;;;;;15.47;3.10;;;29.60;99.90;;;;;;4991021;28;20226;-73
2022/01/11 02:10:55;;;;;;;12.20;2.83;;;29.60;99.90;;;;;;4991540;28;20183;-71
2022/01/11 02:13:23;;;;;;;12.53;2.70;;;29.50;99.90;;;;;;4974133;28;20185;-72
2022/01/11 02:15:51;;;;;;;16.47;4.03;;;29.50;99.90;;;;;;4990354;28;20232;-72
2022/01/11 02:18:23;;;;;;;16.57;3.17;;;29.70;99.90;;;;;;4973643;28;20570;-72
2022/01/11 02:20:52;;;;;;;12.30;2.53;;;29.80;99.90;;;;;;4991559;28;20194;-72
2022/01/11 02:23:21;;;;;;;9.70;2.70;;;29.50;99.90;;;;;;4992155;28;20213;-75
2022/01/11 02:25:49;;;;;;;12.30;3.60;;;29.30;99.90;;;;;;4991438;28;20211;-75
2022/01/11 02:28:21;;;;;;;14.73;3.77;;;29.20;99.90;;;;;;4973696;28;20245;-73
2022/01/11 02:30:51;;;;;;;10.83;2.77;;;29.30;99.90;;;;;;4991344;28;20174;-72
2022/01/11 02:33:34;;;;;;;13.53;2.80;;;29.50;99.90;;;;;;4991286;28;20187;-72
2022/01/11 02:36:07;;;;;;;12.63;3.20;;;29.50;99.90;;;;;;4990810;28;20731;-75
2022/01/11 02:38:35;;;;;;;12.13;2.60;;;29.40;99.90;;;;;;4990801;28;20179;-75
2022/01/11 02:41:04;;;;;;;11.13;2.73;;;29.50;99.90;;;;;;4991125;28;20189;-74
2022/01/11 02:43:32;;;;;;;9.23;2.70;;;29.70;99.90;;;;;;4990928;28;20190;-74
2022/01/11 02:46:01;;;;;;;15.97;3.27;;;29.70;99.90;;;;;;4990757;28;20198;-75
2022/01/11 02:48:30;;;;;;;12.73;2.47;;;29.70;99.90;;;;;;4990608;28;20686;-74
2022/01/11 02:50:58;;;;;;;12.53;2.77;;;29.80;99.90;;;;;;4991099;28;20563;-75
2022/01/11 02:53:26;;;;;;;10.27;2.30;;;29.90;99.90;;;;;;4990904;28;20182;-75
2022/01/11 02:55:53;;;;;;;15.87;3.00;;;29.80;99.90;;;;;;4991109;28;20648;-73
2022/01/11 02:58:21;;;;;;;9.60;2.63;;;29.80;99.90;;;;;;4991262;28;20237;-74
2022/01/11 03:00:49;;;;;;;11.87;3.10;;;29.80;99.90;;;;;;4991347;28;20320;-72
2022/01/11 03:03:22;;;;;;;18.30;3.53;;;29.80;99.90;;;;;;4991755;28;20187;-72
2022/01/11 03:06:00;;;;;;;15.47;3.73;;;29.50;99.90;;;;;;4994666;28;20237;-74
2022/01/11 03:08:31;;;;;;;10.83;2.87;;;29.00;99.90;;;;;;4994310;28;20301;-74
2022/01/11 03:11:00;;;;;;;15.00;4.10;;;28.80;99.90;;;;;;4977240;28;20586;-73
2022/01/11 03:13:29;;;;;;;10.60;2.93;;;28.80;99.90;;;;;;4994538;28;20206;-75
2022/01/11 03:15:57;;;;;;;17.53;3.63;;;28.60;99.90;;;;;;4994405;28;20588;-72
2022/01/11 03:18:25;;;;;;;11.83;2.63;;;28.40;99.90;;;;;;4994460;28;20175;-75
2022/01/11 03:20:53;;;;;;;18.60;3.43;;;28.40;99.90;;;;;;4993311;28;20726;-73
2022/01/11 03:23:22;;;;;;;12.87;3.10;;;28.10;99.90;;;;;;4993879;28;20279;-73
2022/01/11 03:25:51;;;;;;;17.97;3.60;;;28.00;99.90;;;;;;4976394;28;20183;-72
2022/01/11 03:28:21;;;;;;;14.43;3.23;;;27.90;99.90;;;;;;4994165;28;20194;-75
2022/01/11 03:30:51;;;;;;;11.63;2.83;;;27.90;99.90;;;;;;4993557;28;20939;-74
2022/01/11 03:33:19;;;;;;;10.30;2.80;;;28.00;99.90;;;;;;4993270;28;20253;-74
2022/01/11 03:35:47;;;;;;;16.83;2.90;;;28.10;99.90;;;;;;4994200;28;20218;-75
2022/01/11 03:38:17;;;;;;;19.77;5.40;;;27.90;99.90;;;;;;4994210;28;20201;-75
2022/01/11 03:40:45;;;;;;;11.30;2.90;;;28.00;99.90;;;;;;4993259;28;20218;-75
2022/01/11 03:43:12;;;;;;;14.83;3.67;;;27.90;99.90;;;;;;4993935;28;20575;-75
2022/01/11 03:45:40;;;;;;;11.13;3.37;;;27.90;99.90;;;;;;4993888;28;20583;-72
2022/01/11 03:48:09;;;;;;;17.03;3.80;;;27.90;99.90;;;;;;4993385;28;20215;-74
2022/01/11 03:50:37;;;;;;;17.33;3.10;;;28.00;99.90;;;;;;4993174;28;20639;-75
2022/01/11 03:53:12;;;;;;;17.67;3.33;;;27.90;99.90;;;;;;4976431;28;20192;-74
2022/01/11 03:55:59;;;;;;;16.00;2.97;;;28.10;99.90;;;;;;4993696;28;20284;-74
2022/01/11 03:58:29;;;;;;;13.37;3.27;;;28.20;99.90;;;;;;4976225;28;20205;-76
2022/01/11 04:00:58;;;;;;;13.83;2.67;;;28.30;99.90;;;;;;4992884;28;20299;-74
2022/01/11 04:03:27;;;;;;;13.27;3.20;;;28.20;99.90;;;;;;4993458;28;20640;-73
2022/01/11 04:05:55;;;;;;;19.03;3.57;;;28.10;99.90;;;;;;4976005;28;20550;-74
2022/01/11 04:08:23;;;;;;;13.57;2.93;;;28.00;99.90;;;;;;4993362;28;20226;-74
2022/01/11 04:10:51;;;;;;;10.43;3.00;;;28.10;99.90;;;;;;4993184;28;20194;-73
2022/01/11 04:13:19;;;;;;;9.80;2.77;;;28.20;99.90;;;;;;4993263;28;20186;-72
2022/01/11 04:15:47;;;;;;;14.97;2.90;;;28.30;99.90;;;;;;4974778;28;20571;-75
2022/01/11 04:18:14;;;;;;;8.60;2.90;;;28.50;99.90;;;;;;4975062;28;20294;-73
2022/01/11 04:20:42;;;;;;;10.27;2.40;;;28.80;99.90;;;;;;4992491;28;20546;-73
2022/01/11 04:23:12;;;;;;;12.40;3.00;;;29.10;99.90;;;;;;4992356;28;20205;-73
2022/01/11 04:25:41;;;;;;;14.93;3.30;;;29.30;99.90;;;;;;4992501;28;20667;-74
2022/01/11 04:28:09;;;;;;;12.33;2.67;;;29.30;99.90;;;;;;4992320;28;20175;-74
2022/01/11 04:30:37;;;;;;;12.97;2.73;;;29.20;99.90;;;;;;4991693;28;20187;-74
2022/01/11 04:33:05;;;;;;;15.70;2.73;;;29.10;99.90;;;;;;4975309;28;20655;-75
2022/01/11 04:35:33;;;;;;;9.10;2.33;;;29.40;99.90;;;;;;4991798;28;20265;-75
2022/01/11 04:38:01;;;;;;;14.53;2.93;;;29.50;99.90;;;;;;4995173;28;20194;-74
2022/01/11 04:40:29;;;;;;;12.97;3.40;;;29.70;99.90;;;;;;5012605;28;20650;-76
2022/01/11 04:42:57;;;;;;;10.83;2.60;;;29.50;99.90;;;;;;4985077;28;20229;-74
2022/01/11 04:45:24;;;;;;;12.50;2.90;;;29.20;99.90;;;;;;4992626;28;20253;-75
2022/01/11 04:47:56;;;;;;;13.97;2.90;;;29.00;99.90;;;;;;4991953;28;20277;-73
2022/01/11 04:50:27;;;;;;;15.87;2.87;;;28.90;99.90;;;;;;4992055;28;20651;-72
2022/01/11 04:52:55;;;;;;;16.10;2.50;;;28.80;99.90;;;;;;4992249;28;20210;-73
2022/01/11 04:55:23;;;;;;;14.83;3.23;;;28.80;99.90;;;;;;4992208;28;20212;-73
2022/01/11 04:57:51;;;;;;;11.07;2.53;;;28.50;99.90;;;;;;4992571;28;20587;-73
2022/01/11 05:00:21;;;;;;;16.27;3.77;;;28.20;99.90;;;;;;4991872;28;20178;-73
2022/01/11 05:02:49;;;;;;;11.20;2.60;;;28.00;99.90;;;;;;4992342;28;20182;-71
2022/01/11 05:05:17;;;;;;;13.87;3.43;;;27.80;99.90;;;;;;4992508;28;20253;-74
2022/01/11 05:07:46;;;;;;;17.07;2.70;;;27.60;99.90;;;;;;4992049;28;20214;-75
2022/01/11 05:10:14;;;;;;;19.47;3.20;;;27.80;99.90;;;;;;4992238;28;20270;-74
2022/01/11 05:12:42;;;;;;;16.17;3.50;;;27.70;99.90;;;;;;4991695;28;20237;-73
2022/01/11 05:15:11;;;;;;;18.23;3.43;;;27.40;99.90;;;;;;4992408;28;20210;-73
2022/01/11 05:17:41;;;;;;;12.97;2.90;;;27.50;99.90;;;;;;4992192;28;20182;-74
2022/01/11 05:20:10;;;;;;;13.40;3.23;;;27.60;99.90;;;;;;4991984;28;20175;-73
2022/01/11 05:22:38;;;;;;;16.77;3.13;;;27.50;99.90;;;;;;4991326;28;20526;-74
2022/01/11 05:25:09;;;;;;;16.80;4.13;;;27.40;99.90;;;;;;4991838;28;20206;-72
2022/01/11 05:27:36;;;;;;;15.37;3.83;;;27.50;99.90;;;;;;4991758;28;20186;-75
2022/01/11 05:30:07;;;;;;;13.30;3.27;;;27.60;99.90;;;;;;4991682;28;20262;-75
2022/01/11 05:32:35;;;;;;;18.10;3.70;;;27.50;99.90;;;;;;4990974;28;20214;-75
2022/01/11 05:35:08;;;;;;;13.30;3.00;;;27.30;99.90;;;;;;4974195;28;20744;-76
2022/01/11 05:37:36;;;;;;;13.53;3.27;;;27.20;99.90;;;;;;4991494;28;20233;-76
2022/01/11 05:40:06;;;;;;;9.87;2.93;;;27.20;99.90;;;;;;4991348;28;20189;-76
2022/01/11 05:42:34;;;;;;;16.13;3.77;;;27.10;99.90;;;;;;4991261;28;20183;-75
2022/01/11 05:45:03;;;;;;;14.17;3.30;;;27.20;99.90;;;;;;4991942;28;20266;-75
2022/01/11 05:47:31;;;;;;;17.90;3.33;;;27.20;99.90;;;;;;4990860;28;20190;-74
2022/01/11 05:50:00;;;;;;;15.37;3.77;;;27.30;99.90;;;;;;4991655;28;20221;-76
2022/01/11 05:52:28;;;;;;;20.07;3.63;;;27.50;99.90;;;;;;4973471;28;20187;-77
2022/01/11 05:54:55;;;;;;;14.00;3.17;;;27.40;99.90;;;;;;4991204;28;20182;-77
2022/01/11 05:57:23;;;;;;;16.23;3.13;;;27.40;99.90;;;;;;4991150;28;20245;-75
2022/01/11 05:59:51;;;;;;;14.07;2.97;;;27.40;99.90;;;;;;4991687;28;20771;-75
2022/01/11 06:02:18;;;;;;;15.63;3.23;;;27.30;99.90;;;;;;4991356;28;20214;-72
2022/01/11 06:04:46;;;;;;;11.40;2.63;;;27.30;99.90;;;;;;4990844;28;20744;-77
2022/01/11 06:07:14;;;;;;;18.53;3.27;;;27.10;99.90;;;;;;4991303;28;20671;-74
2022/01/11 06:09:42;;;;;;;14.60;2.83;;;26.90;99.90;;;;;;4973890;28;20229;-76
2022/01/11 06:12:10;;;;;;;16.67;3.03;;;26.90;99.90;;;;;;4991633;28;20186;-77
2022/01/11 06:14:37;;;;;;;17.93;3.43;;;26.90;99.90;;;;;;4973314;28;20555;-76
2022/01/11 06:17:05;;;;;;;15.90;3.47;;;27.00;99.90;;;;;;4991535;28;20223;-77
2022/01/11 06:19:34;;;;;;;17.10;3.90;;;27.00;99.90;;;;;;4991412;28;20171;-76
2022/01/11 06:22:02;;;;;;;9.20;2.47;;;26.90;99.90;;;;;;4982774;28;20683;-76
2022/01/11 06:24:30;;;;;;;15.13;3.70;;;26.60;99.90;;;;;;4991530;28;20545;-76
2022/01/11 06:26:57;;;;;;;15.93;3.60;;;26.60;99.90;;;;;;4987978;28;20671;-77
2022/01/11 06:29:25;;;;;;;16.37;3.60;;;26.60;99.90;;;;;;4991540;28;20175;-73
2022/01/11 06:31:53;;;;;;;14.33;3.50;;;26.60;99.90;;;;;;4991148;28;20552;-76
2022/01/11 06:34:21;;;;;;;16.80;3.73;;;26.60;99.90;;;;;;4991355;28;20411;-74
2022/01/11 06:36:48;;;;;;;16.53;3.77;;;26.60;99.90;;;;;;4991358;28;20219;-74
2022/01/11 06:39:16;;;;;;;11.80;3.20;;;26.60;99.90;;;;;;4993183;28;20182;-73
2022/01/11 06:41:44;;;;;;;15.07;3.10;;;26.60;99.90;;;;;;4977372;28;20193;-72
2022/01/11 06:44:12;;;;;;;19.00;3.33;;;26.60;99.90;;;;;;4958295;28;20664;-74
2022/01/11 06:46:39;;;;;;;17.97;3.50;;;26.60;99.90;;;;;;4983559;28;20186;-76
2022/01/11 06:49:07;;;;;;;13.80;3.40;;;26.60;99.90;;;;;;4994542;28;20221;-75
2022/01/11 06:51:35;;;;;;;14.80;3.43;;;26.60;99.90;;;;;;4994888;28;20552;-73
2022/01/11 06:54:03;;;;;;;16.57;4.07;;;26.60;99.90;;;;;;4994769;28;20179;-74
2022/01/11 06:56:31;;;;;;;17.20;3.60;;;26.60;99.90;;;;;;4976886;28;20218;-73
2022/01/11 06:58:58;;;;;;;16.37;3.43;;;26.70;99.90;;;;;;4994530;28;20189;-73
2022/01/11 07:01:26;;;;;;;23.00;3.97;;;27.00;99.90;;;;;;4976477;28;20182;-72
2022/01/11 07:03:54;;;;;;;18.37;4.00;;;27.00;99.90;;;;;;4994894;28;20257;-72
2022/01/11 07:06:21;;;;;;;15.77;3.03;;;27.00;99.90;;;;;;4994568;28;20186;-73
2022/01/11 07:08:49;;;;;;;11.87;2.80;;;27.00;99.90;;;;;;4993885;28;20946;-73
2022/01/11 07:11:18;;;;;;;13.47;2.57;;;26.90;99.90;;;;;;4976793;28;20662;-72
2022/01/11 07:13:46;;;;;;;11.00;3.03;;;27.00;99.90;;;;;;4994432;28;20554;-72
2022/01/11 07:16:14;;;;;;;11.43;2.77;;;27.20;99.90;;;;;;4994169;28;20222;-71
2022/01/11 07:18:41;;;;;;;13.00;2.90;;;27.20;99.90;;;;;;4994585;28;20691;-70
2022/01/11 07:21:09;;;;;;;13.90;2.97;;;27.10;99.90;;;;;;4993728;28;20182;-71
2022/01/11 07:23:36;;;;;;;15.10;3.20;;;27.00;99.90;;;;;;4994129;28;20194;-73
2022/01/11 07:26:07;;;;;;;12.67;3.37;;;26.90;99.90;;;;;;4993799;28;20187;-73
2022/01/11 07:28:37;;;;;;;15.37;3.20;;;26.50;99.90;;;;;;4994165;28;20183;-73
2022/01/11 07:31:05;;;;;;;14.50;3.03;;;26.50;99.90;;;;;;4993695;28;20175;-72
2022/01/11 07:33:32;;;;;;;18.20;3.23;;;26.40;99.90;;;;;;4994165;28;20348;-73
2022/01/11 07:35:59;;;;;;;15.23;3.57;;;26.40;99.90;;;;;;4993440;28;20730;-73
2022/01/11 07:38:27;;;;;;;14.33;3.00;;;26.30;99.90;;;;;;4993929;28;20197;-73
2022/01/11 07:40:54;;;;;;;15.27;3.67;;;26.30;99.90;;;;;;4993536;28;20610;-72
2022/01/11 07:43:21;;;;;;;12.13;3.00;;;26.30;99.90;;;;;;4976535;28;20190;-71
2022/01/11 07:45:49;;;;;;;12.43;3.27;;;26.30;99.90;;;;;;4993742;28;20190;-73
2022/01/11 07:48:16;;;;;;;13.50;3.07;;;26.30;99.90;;;;;;4993165;28;20186;-71
2022/01/11 07:50:43;;;;;;;14.40;3.40;;;26.40;99.90;;;;;;4993508;28;20213;-71
2022/01/11 07:53:11;;;;;;;14.30;2.87;;;26.50;99.90;;;;;;4993795;28;20195;-71
2022/01/11 07:55:38;;;;;;;19.00;3.70;;;26.40;99.90;;;;;;4993326;28;20246;-73
2022/01/11 07:58:05;;;;;;;12.50;2.63;;;26.30;99.90;;;;;;4993584;28;20293;-72
2022/01/11 08:00:33;;;;;;;16.43;2.87;;;26.30;99.90;;;;;;4993440;28;20182;-72
2022/01/11 08:03:00;;;;;;;11.97;2.57;;;26.30;99.90;;;;;;4993413;28;20175;-74
2022/01/11 08:05:27;;;;;;;11.83;2.77;;;26.30;99.90;;;;;;4993553;28;20182;-74
2022/01/11 08:07:55;;;;;;;7.27;2.87;;;26.30;99.90;;;;;;4993253;28;20226;-76
2022/01/11 08:10:22;;;;;;;15.53;3.60;;;26.30;99.90;;;;;;4994304;28;20682;-79
2022/01/11 08:12:49;;;;;;;14.47;3.23;;;26.20;99.90;;;;;;4995261;28;20183;-78
2022/01/11 08:15:18;;;;;;;10.30;2.80;;;26.20;99.90;;;;;;4994998;28;20229;-80
2022/01/11 08:17:46;;;;;;;15.20;3.43;;;26.30;99.90;;;;;;4994946;28;20198;-78
2022/01/11 08:20:14;;;;;;;10.93;3.10;;;26.60;99.90;;;;;;4994924;28;20233;-77
2022/01/11 08:22:41;;;;;;;14.27;3.07;;;26.70;99.90;;;;;;4994421;28;20194;-78
2022/01/11 08:25:10;;;;;;;13.20;3.77;;;26.80;99.90;;;;;;4995244;28;20179;-78
2022/01/11 08:27:37;;;;;;;17.77;3.20;;;26.80;99.90;;;;;;4977646;28;20265;-77
2022/01/11 08:30:07;;;;;;;13.60;3.80;;;26.60;99.90;;;;;;4994805;28;20288;-79
2022/01/11 08:32:34;;;;;;;19.73;3.83;;;26.60;99.90;;;;;;4995119;28;20559;-78
2022/01/11 08:35:02;;;;;;;15.20;3.00;;;26.30;99.90;;;;;;4995030;28;20702;-77
2022/01/11 08:37:29;;;;;;;16.73;3.30;;;26.20;99.90;;;;;;4994671;28;20229;-77
2022/01/11 08:39:57;;;;;;;14.77;3.13;;;26.10;99.90;;;;;;4995172;28;20178;-79
2022/01/11 08:42:25;;;;;;;16.67;3.20;;;26.00;99.90;;;;;;4995455;28;20191;-79
2022/01/11 08:44:52;;;;;;;16.07;3.43;;;25.90;99.90;;;;;;4994812;28;20182;-77
2022/01/11 08:47:20;;;;;;;16.20;3.60;;;25.70;99.90;;;;;;4994565;28;20648;-78
2022/01/11 08:49:48;;;;;;;12.63;3.03;;;25.60;99.90;;;;;;4994769;28;20178;-79
2022/01/11 08:52:15;;;;;;;13.07;2.87;;;25.50;99.90;;;;;;4994901;28;20639;-78
2022/01/11 08:54:43;;;;;;;17.60;3.53;;;25.40;99.90;;;;;;4977196;28;20524;-75
2022/01/11 08:57:10;;;;;;;17.67;3.47;;;25.20;99.90;;;;;;4994342;28;20297;-71
2022/01/11 08:59:38;;;;;;;21.67;4.00;;;25.20;99.90;;;;;;4976529;28;20179;-77
2022/01/11 09:02:08;;;;;;;18.47;3.57;;;25.10;99.90;;;;;;4994033;28;20270;-78
2022/01/11 09:04:35;;;;;;;18.37;3.63;;;25.00;99.90;;;;;;4994272;28;20206;-77
2022/01/11 09:07:03;;;;;;;13.47;3.43;;;24.90;99.90;;;;;;4994049;28;20190;-70
2022/01/11 09:09:32;;;;;;;14.80;2.87;;;24.80;99.90;;;;;;4994100;28;20228;-79
2022/01/11 09:12:05;;;;;;;19.10;4.13;;;24.90;99.90;;;;;;4976858;28;20265;-77
2022/01/11 09:14:33;;;;;;;16.23;4.10;;;24.80;99.90;;;;;;4961664;28;20190;-75
2022/01/11 09:17:02;;;;;;;18.70;3.47;;;24.80;99.90;;;;;;4993744;28;20222;-77
2022/01/11 09:19:31;;;;;;;17.80;3.53;;;24.70;99.90;;;;;;4993479;28;20541;-72
2022/01/11 09:21:59;;;;;;;18.43;2.70;;;24.70;99.90;;;;;;4976984;28;20178;-77
2022/01/11 09:24:29;;;;;;;19.67;4.03;;;24.60;99.90;;;;;;4993911;28;20265;-78
2022/01/11 09:26:58;;;;;;;15.70;3.53;;;24.60;99.90;;;;;;4993976;28;20759;-78
2022/01/11 09:29:27;;;;;;;17.77;3.93;;;24.60;99.90;;;;;;4993941;28;20602;-76
2022/01/11 09:31:57;;;;;;;21.33;3.87;;;24.60;99.90;;;;;;4977275;28;20182;-77
2022/01/11 09:34:24;;;;;;;19.03;4.17;;;24.60;99.90;;;;;;4993328;28;20593;-77
2022/01/11 09:36:52;;;;;;;25.77;4.37;;;24.50;99.90;;;;;;4994267;28;20209;-77
2022/01/11 09:39:20;;;;;;;22.23;3.90;;;24.50;99.90;;;;;;4993933;28;20212;-78
2022/01/11 09:41:48;;;;;;;15.60;3.50;;;24.40;99.90;;;;;;4994222;28;20193;-79
2022/01/11 09:44:15;;;;;;;27.63;4.10;;;24.40;99.90;;;;;;4994133;28;20261;-79
2022/01/11 09:46:43;;;;;;;18.80;3.60;;;24.30;99.90;;;;;;4993476;28;20193;-78
2022/01/11 09:49:10;;;;;;;19.07;3.60;;;24.30;99.90;;;;;;4993420;28;20190;-79
2022/01/11 09:51:39;;;;;;;16.90;3.13;;;24.30;99.90;;;;;;4994043;28;20261;-78
2022/01/11 09:54:08;;;;;;;26.07;3.90;;;24.20;99.90;;;;;;4994041;28;20276;-78
2022/01/11 09:56:37;;;;;;;14.60;2.83;;;24.20;99.90;;;;;;4993912;28;20866;-79
2022/01/11 09:59:06;;;;;;;21.73;3.60;;;24.10;99.90;;;;;;4976469;28;20190;-78
2022/01/11 10:01:36;;;;;;;17.53;3.57;;;24.10;99.90;;;;;;4993860;28;20186;-76
2022/01/11 10:04:11;;;;;;;18.23;3.83;;;24.10;99.90;;;;;;4994009;28;20659;-78
2022/01/11 10:06:42;;;;;;;24.37;3.93;;;24.00;99.90;;;;;;4993932;28;20204;-78
2022/01/11 10:09:18;;;;;;;17.87;3.27;;;23.90;99.90;;;;;;4992868;28;20748;-78
2022/01/11 10:11:54;;;;;;;27.03;3.90;;;23.90;99.90;;;;;;4993097;28;20220;-78
2022/01/11 10:14:33;;;;;;;22.70;4.53;;;23.90;99.90;;;;;;4995238;28;20178;-78
2022/01/11 10:17:19;;;;;;;19.50;4.60;;;23.80;99.90;;;;;;4978250;28;20228;-78
2022/01/11 10:20:07;;;;;;;18.93;3.67;;;23.80;99.90;;;;;;4979038;28;20192;-78
2022/01/11 10:22:44;;;;;;;27.97;5.00;;;23.80;99.90;;;;;;4996110;28;20206;-77
2022/01/11 10:25:11;;;;;;;18.97;3.70;;;23.80;99.90;;;;;;4980020;28;20650;-77
2022/01/11 10:27:39;;;;;;;15.20;3.63;;;23.80;99.90;;;;;;4996095;28;20181;-77
2022/01/11 10:30:17;;;;;;;25.27;5.00;;;23.80;99.90;;;;;;4995441;28;20277;-77
2022/01/11 10:32:46;;;;;;;20.40;3.80;;;23.70;99.90;;;;;;4996178;28;20567;-78
2022/01/11 10:35:42;;;;;;;24.40;4.37;;;23.70;99.90;;;;;;4996074;28;20187;-78
2022/01/11 10:38:11;;;;;;;26.60;4.13;;;23.70;99.90;;;;;;4995919;28;20182;-77
2022/01/11 10:40:44;;;;;;;17.40;3.67;;;23.60;99.90;;;;;;4996089;28;20225;-77
2022/01/11 10:43:15;;;;;;;18.07;3.30;;;23.60;99.90;;;;;;4996230;28;20179;-76
2022/01/11 10:45:47;;;;;;;22.17;4.30;;;23.60;99.90;;;;;;4995971;28;20185;-75
2022/01/11 10:48:21;;;;;;;24.73;4.30;;;23.60;99.90;;;;;;4995977;28;20191;-71
2022/01/11 10:50:56;;;;;;;24.30;3.93;;;23.50;99.90;;;;;;4978444;28;20178;-76
2022/01/11 10:53:28;;;;;;;25.33;4.33;;;23.50;99.90;;;;;;4995621;28;20572;-77
2022/01/11 10:55:58;;;;;;;18.53;3.50;;;23.40;99.90;;;;;;4995712;28;20220;-77
2022/01/11 10:58:28;;;;;;;22.57;4.30;;;23.40;99.90;;;;;;4995790;28;20193;-77
2022/01/11 11:00:58;;;;;;;22.13;4.37;;;23.40;99.90;;;;;;4978239;28;20251;-75
2022/01/11 11:03:29;;;;;;;29.13;4.57;;;23.30;99.90;;;;;;4996087;28;20188;-76
2022/01/11 11:06:13;;;;;;;25.23;3.50;;;23.30;99.90;;;;;;4997082;28;20186;-73
2022/01/11 11:08:47;;;;;;;20.33;4.20;;;23.30;99.90;;;;;;4812049;28;5402228;-76
2022/01/11 11:11:20;;;;;;;23.57;3.57;;;23.20;99.90;;;;;;4998359;28;20185;-76
2022/01/11 11:13:51;;;;;;;15.90;3.90;;;23.30;99.90;;;;;;4996687;28;20190;-78
2022/01/11 11:16:29;;;;;;;24.97;4.03;;;23.30;99.90;;;;;;4996442;28;20248;-78
2022/01/11 11:19:02;;;;;;;17.77;3.77;;;23.30;99.90;;;;;;4979209;28;20198;-77
2022/01/11 11:21:37;;;;;;;17.20;3.60;;;23.20;99.90;;;;;;4997269;28;20186;-74
2022/01/11 11:24:14;;;;;;;21.67;4.33;;;23.20;99.90;;;;;;4995937;28;20189;-76
2022/01/11 11:26:46;;;;;;;18.33;3.70;;;23.10;99.90;;;;;;4996441;28;20194;-75
2022/01/11 11:29:15;;;;;;;25.73;3.97;;;23.10;99.90;;;;;;4996332;28;20185;-76
2022/01/11 11:31:43;;;;;;;26.13;4.47;;;23.00;99.90;;;;;;4996383;28;20177;-75
2022/01/11 11:34:12;;;;;;;21.27;3.30;;;23.00;99.90;;;;;;4996373;28;20185;-77
2022/01/11 11:36:42;;;;;;;21.97;3.73;;;23.00;99.90;;;;;;4996232;28;20227;-76
2022/01/11 11:39:20;;;;;;;27.43;4.60;;;23.00;99.90;;;;;;4996223;28;20173;-77
2022/01/11 11:41:51;;;;;;;21.87;3.57;;;23.00;99.90;;;;;;4996486;28;20542;-76
2022/01/11 11:44:24;;;;;;;22.30;4.20;;;23.00;99.90;;;;;;4996319;28;20186;-76
2022/01/11 11:47:00;;;;;;;15.57;3.10;;;23.00;99.90;;;;;;4995680;28;20194;-72
2022/01/11 11:49:58;;;;;;;19.93;4.07;;;22.90;99.90;;;;;;4996015;28;20196;-75
2022/01/11 11:52:39;;;;;;;22.73;3.23;;;22.90;99.90;;;;;;4981223;28;20189;-76
2022/01/11 11:55:27;;;;;;;24.10;4.53;;;22.90;99.90;;;;;;4996069;28;20178;-75
2022/01/11 11:57:58;;;;;;;26.03;3.67;;;22.80;99.90;;;;;;4996120;28;20181;-77
2022/01/11 12:00:31;;;;;;;18.20;3.87;;;22.80;99.90;;;;;;4995687;28;20241;-77
2022/01/11 12:03:01;;;;;;;22.43;4.03;;;22.80;99.90;;;;;;4996137;28;20175;-76
2022/01/11 12:05:39;;;;;;;20.30;4.10;;;22.80;99.90;;;;;;4995803;28;20180;-76
2022/01/11 12:08:26;;;;;;;15.73;3.57;;;22.80;99.90;;;;;;4995176;28;20226;-76
2022/01/11 12:10:58;;;;;;;23.70;4.03;;;22.80;99.90;;;;;;4995775;28;20615;-78
2022/01/11 12:13:57;;;;;;;20.93;3.80;;;22.80;99.90;;;;;;4978194;28;20265;-76
2022/01/11 12:16:29;;;;;;;24.43;4.13;;;22.70;99.90;;;;;;4995817;28;20225;-76
2022/01/11 12:19:05;;;;;;;20.23;3.43;;;22.70;99.90;;;;;;4995264;28;20268;-76
2022/01/11 12:21:44;;;;;;;20.63;3.97;;;22.60;99.90;;;;;;4995693;28;20606;-77
2022/01/11 12:24:12;;;;;;;23.90;4.33;;;22.70;99.90;;;;;;4978090;28;20192;-76
2022/01/11 12:26:40;;;;;;;20.47;4.30;;;22.60;99.90;;;;;;4995253;28;20669;-77
2022/01/11 12:29:08;;;;;;;21.20;4.13;;;22.70;99.90;;;;;;4995560;28;20182;-75
2022/01/11 12:31:50;;;;;;;17.90;3.53;;;22.70;99.90;;;;;;4977568;28;20660;-76
2022/01/11 12:34:18;;;;;;;21.27;4.23;;;22.70;99.90;;;;;;4995040;28;20270;-76
2022/01/11 12:36:58;;;;;;;19.27;3.67;;;22.60;99.90;;;;;;4994638;28;20208;-74
2022/01/11 12:39:27;;;;;;;26.00;4.10;;;22.60;99.90;;;;;;4995456;28;20170;-76
2022/01/11 12:41:56;;;;;;;21.70;3.50;;;22.60;99.90;;;;;;4994553;28;20243;-76
2022/01/11 12:46:59;;;;;;;20.00;4.03;;;22.60;99.90;;;;;;4994746;28;20667;-73
2022/01/11 12:49:29;;;;;;;20.40;3.83;;;22.50;99.90;;;;;;4995039;28;20178;-76
2022/01/11 12:52:09;;;;;;;27.90;4.80;;;22.50;99.90;;;;;;4995031;28;20182;-75
2022/01/11 12:54:48;;;;;;;16.97;3.37;;;22.50;99.90;;;;;;4994570;28;20203;-76
2022/01/11 12:57:23;;;;;;;20.00;3.57;;;22.40;99.90;;;;;;4977192;28;20329;-76
2022/01/11 12:59:56;;;;;;;22.77;3.97;;;22.50;99.90;;;;;;4994881;28;20218;-74